Flight Track Log - Related Links

Times and Time Zones

All times are in EDT time to prevent confusion due to time zone crossing. See the ASQ4533 flight status page for this flight to view local times or setup timezone preferences in your user account.

Time Position Orientation Groundspeed Altitude Reporting Facility
EDT Latitude Longitude Course Direction KTS MPH feet Rate Location/Type
Tue 08:13:44 AM 42.9833 -78.6667 48° Northeast 182 209 3,000  Level Buffalo TRACON
Tue 08:15:06 AM 42.9861 -78.5472 88° East 254 292 5,400 2,000 Climbing Cleveland Center
Tue 08:16:08 AM 42.9669 -78.4419 104° East 275 316 7,800 2,274 Climbing Cleveland Center
Tue 08:17:00 AM 42.6598 -78.1218 122° Southeast  Level Estimated
Tue 08:17:10 AM 42.9467 -78.3369 105° East 288 331 10,100  Level Cleveland Center
Tue 08:18:12 AM 42.9258 -78.2264 104° East 302 348 11,300 1,065 Climbing Cleveland Center
Tue 08:19:14 AM 42.9036 -78.1006 104° East 338 389 12,300 1,016 Climbing Cleveland Center
Tue 08:20:16 AM 42.8778 -77.9678 105° East 360 414 13,400 1,113 Climbing Cleveland Center
Tue 08:21:18 AM 42.8472 -77.8014 104° East 371 427 14,600 1,113 Climbing Cleveland Center
Tue 08:22:20 AM 42.8336 -77.6567 97° East 383 441 15,700 1,065 Climbing Cleveland Center
Tue 08:23:22 AM 42.8175 -77.5086 98° East 388 447 16,800 1,016 Climbing Cleveland Center
Tue 08:24:24 AM 42.7919 -77.3608 103° East 393 452 17,800 1,161 Climbing Cleveland Center
Tue 08:25:26 AM 42.7656 -77.2131 104° East 397 457 19,200 1,742 Climbing Cleveland Center
Tue 08:26:28 AM 42.7411 -77.0761 104° East 376 433 21,400 1,742 Climbing Cleveland Center
Tue 08:27:30 AM 42.7167 -76.9397 104° East 371 427 22,800 990 Climbing Cleveland Center
Tue 08:28:05 AM 42.7008 -76.8556 104° East 377 434 23,000 125 Climbing Boston Center
Tue 08:29:06 AM 42.6739 -76.7028 103° East 414 476 23,000  Level Boston Center
Tue 08:30:07 AM 42.6283 -76.5486 112° Southeast 438 504 23,000  Level Boston Center
Tue 08:31:08 AM 42.5608 -76.4031 122° Southeast 451 519 23,000 -541 Level Boston Center
Tue 08:32:09 AM 42.4847 -76.2328 121° Southeast 457 526 21,900 -976 Descending Boston Center
Tue 08:33:11 AM 42.4200 -76.0911 122° Southeast 449 517 21,000 -976 Descending Boston Center
Tue 08:34:12 AM 42.3594 -75.9564 121° Southeast 425 489 19,900 -1,033 Descending Boston Center
Tue 08:35:13 AM 42.3064 -75.8436 122° Southeast 370 426 18,900 -934 Descending Boston Center
Tue 08:36:14 AM 42.2561 -75.7314 121° Southeast 354 407 18,000 -439 Descending Boston Center
Tue 08:37:16 AM 42.2056 -75.6222 122° Southeast 345 397 18,000  Level Boston Center
Tue 08:38:17 AM 42.1536 -75.5119 122° Southeast 345 397 18,000  Level Boston Center
Tue 08:39:18 AM 42.1017 -75.3989 122° Southeast 350 403 18,000  Level Boston Center
Tue 08:40:19 AM 42.0500 -75.2844 121° Southeast 355 409 18,000  Level Boston Center
Tue 08:41:20 AM 41.9975 -75.1425 116° Southeast 355 409 18,000  Level Boston Center
Tue 08:42:21 AM 41.9519 -75.0211 117° Southeast 354 407 18,000  Level Boston Center
Tue 08:43:23 AM 41.9083 -74.9028 116° Southeast 354 407 18,000 -439 Level Boston Center
Tue 08:44:24 AM 41.8631 -74.7869 118° Southeast 353 406 17,100 -934 Descending Boston Center
Tue 08:45:25 AM 41.8200 -74.6739 117° Southeast 345 397 16,100 -1,279 Descending Boston Center
Tue 08:46:26 AM 41.7731 -74.5533 118° Southeast 342 394 14,500 -1,574 Descending Boston Center
Tue 08:47:27 AM 41.7294 -74.4483 119° Southeast 326 375 12,900 -1,525 Descending Boston Center
Tue 08:48:28 AM 41.6711 -74.3653 133° Southeast 308 354 11,400 -1,525 Descending Boston Center
Tue 08:49:29 AM 41.6058 -74.2997 143° Southeast 299 344 9,800 -1,561 Descending Boston Center
Tue 08:50:31 AM 41.5275 -74.2819 170° South 293 337 8,200 -1,366 Descending Boston Center
Tue 08:51:32 AM 41.4561 -74.3242 204° Southwest 286 329 7,000 -590 Descending Boston Center
Tue 08:52:33 AM 41.3867 -74.3628 203° Southwest 276 318 7,000  Level Boston Center
Tue 08:53:28 AM 41.3167 -74.4000 202° Southwest 275 316 7,000  Level New York TRACON
Tue 08:54:28 AM 41.2500 -74.4333 201° Southwest 271 312 7,000  Level New York TRACON
Tue 08:55:22 AM 41.1833 -74.4667 201° Southwest 269 310 7,000  Level New York TRACON
Tue 08:56:22 AM 41.1167 -74.5167 209° Southwest 273 314 7,000 -450 Level New York TRACON
Tue 08:57:22 AM 41.0333 -74.5333 189° South 278 320 6,100 -500 Descending New York TRACON
Tue 08:58:22 AM 40.9667 -74.5500 191° South 271 312 6,000 -50 Descending New York TRACON
Tue 08:59:22 AM 40.9000 -74.5667 191° South 273 314 6,000  Level New York TRACON
Tue 09:00:22 AM 40.8167 -74.5667 180° South 274 315 6,000  Level New York TRACON
Tue 09:01:22 AM 40.7500 -74.5500 169° South 274 315 6,000  Level New York TRACON
Tue 09:02:22 AM 40.6667 -74.5167 163° South 273 314 6,000 -100 Level New York TRACON
Tue 09:03:22 AM 40.6000 -74.4833 159° South 277 319 5,800 -700 Descending New York TRACON
Tue 09:04:22 AM 40.5500 -74.4000 128° Southeast 263 303 4,600 -1,450 Descending New York TRACON
Tue 09:05:22 AM 40.5333 -74.3167 105° East 250 288 2,900 -1,368 Descending New York TRACON
Tue 09:06:16 AM 40.5667 -74.2500 57° Northeast 247 284 2,000 -789 Descending New York TRACON
Tue 09:07:16 AM 40.6167 -74.2167 27° Northeast 224 258 1,400 -714 Descending New York TRACON
Tue 09:08:22 AM 40.6667 -74.1833 27° Northeast 136 157 500 -818 Descending New York TRACON
Tue 09:10:00 AM 40.6833 -74.1667 78° East  Level FlightAware Approximate

Login

Don't have an account? Register now (free) for customized features, flight alerts, and more!